createdAt,value
2022-08-05T00:00:50.261Z,116.05
2022-08-05T00:03:17.551Z,99.97
2022-08-05T00:06:05.365Z,117.38
2022-08-05T00:08:35.725Z,99.10
2022-08-05T00:11:07.491Z,135.98
2022-08-05T00:13:52.859Z,91.28
2022-08-05T00:16:35.506Z,128.38
2022-08-05T00:19:04.766Z,117.18
2022-08-05T00:21:35.657Z,122.18
2022-08-05T00:24:10.248Z,102.55
2022-08-05T00:26:39.397Z,120.30
2022-08-05T00:29:18.945Z,108.05
2022-08-05T00:32:11.078Z,131.05
2022-08-05T00:34:54.967Z,126.50
2022-08-05T00:37:24.517Z,147.63
2022-08-05T00:39:57.884Z,130.77
2022-08-05T00:42:35.360Z,123.88
2022-08-05T00:45:08.546Z,124.75
2022-08-05T00:47:56.570Z,124.45
2022-08-05T00:50:25.964Z,124.95
2022-08-05T00:54:00.547Z,133.55
2022-08-05T00:56:22.972Z,126.30
2022-08-05T00:58:51.684Z,145.98
2022-08-05T01:01:42.019Z,135.50
2022-08-05T01:04:13.686Z,114.35
2022-08-05T01:06:41.659Z,140.65
2022-08-05T01:09:14.016Z,146.10
2022-08-05T01:11:43.996Z,165.60
2022-08-05T01:14:28.370Z,152.27
2022-08-05T01:17:02.028Z,126.90
2022-08-05T01:19:56.373Z,138.90
2022-08-05T01:22:47.514Z,132.38
2022-08-05T01:25:40.118Z,167.43
2022-08-05T01:28:30.153Z,139.77
2022-08-05T01:31:12.219Z,132.88
2022-08-05T01:34:10.261Z,150.90
2022-08-05T01:36:54.882Z,136.40
2022-08-05T01:39:36.150Z,152.90
2022-08-05T01:42:15.276Z,174.70
2022-08-05T01:44:45.660Z,179.07
2022-08-05T01:47:22.847Z,181.77
2022-08-05T01:50:01.763Z,180.75
2022-08-05T01:52:32.448Z,146.95
2022-08-05T01:55:04.534Z,184.45
2022-08-05T01:58:10.983Z,148.50
2022-08-05T02:00:30.653Z,162.95
2022-08-05T02:03:34.086Z,173.50
2022-08-05T02:06:24.042Z,150.20
2022-08-05T02:08:57.912Z,144.18
2022-08-05T02:11:33.976Z,150.70
2022-08-05T02:14:21.299Z,178.43
2022-08-05T02:16:54.873Z,182.07
2022-08-05T02:19:28.027Z,164.98
2022-08-05T02:22:25.503Z,151.80
2022-08-05T02:25:00.191Z,162.40
2022-08-05T02:27:30.116Z,165.07
2022-08-05T02:30:19.538Z,146.90
2022-08-05T02:35:28.079Z,129.50
2022-08-05T02:38:02.381Z,124.90
2022-08-05T02:40:30.872Z,134.02
2022-08-05T02:42:59.897Z,138.95
2022-08-05T02:45:28.711Z,145.85
2022-08-05T02:48:17.462Z,139.80
2022-08-05T02:50:47.463Z,134.88
2022-08-05T02:53:18.897Z,139.27
2022-08-05T02:55:54.796Z,160.95
2022-08-05T02:58:27.416Z,143.07
2022-08-05T03:00:57.006Z,150.68
2022-08-05T03:03:24.858Z,149.20
2022-08-05T03:06:55.446Z,154.07
2022-08-05T03:08:42.425Z,130.13
2022-08-05T03:11:56.127Z,142.15
2022-08-05T03:14:13.616Z,131.68
2022-08-05T03:16:40.927Z,140.48
2022-08-05T03:19:16.849Z,142.13
2022-08-05T03:21:48.702Z,145.38
2022-08-05T03:24:27.582Z,137.13
2022-08-05T03:29:45.520Z,110.82
2022-08-05T03:32:14.386Z,128.15
2022-08-05T03:34:51.197Z,159.90
2022-08-05T03:37:19.804Z,145.02
2022-08-05T03:40:01.479Z,150.20
2022-08-05T03:42:31.973Z,154.77
2022-08-05T03:47:30.423Z,114.03
2022-08-05T03:50:02.528Z,141.57
2022-08-05T03:52:48.929Z,141.77
2022-08-05T03:56:05.685Z,140.82
2022-08-05T03:58:21.935Z,132.25
2022-08-05T04:01:00.027Z,129.57
2022-08-05T04:03:29.456Z,146.95
2022-08-05T04:05:59.237Z,147.30
2022-08-05T04:08:34.982Z,143.10
2022-08-05T04:11:08.621Z,129.75
2022-08-05T04:13:50.525Z,142.90
2022-08-05T04:16:24.266Z,153.05
2022-08-05T04:18:53.892Z,137.30
2022-08-05T04:22:08.641Z,146.68
2022-08-05T04:24:18.921Z,124.63
2022-08-05T04:26:50.097Z,133.82
2022-08-05T04:29:17.256Z,147.10
2022-08-05T04:31:44.471Z,151.68
2022-08-05T04:34:31.508Z,142.63
2022-08-05T04:37:00.863Z,155.52
2022-08-05T04:39:31.334Z,132.85
2022-08-05T04:41:59.317Z,136.35
2022-08-05T04:44:29.944Z,142.82
2022-08-05T04:47:08.766Z,140.45
2022-08-05T04:50:01.588Z,131.80
2022-08-05T04:52:27.762Z,146.15
2022-08-05T04:54:57.169Z,141.52
2022-08-05T04:57:29.271Z,138.07
2022-08-05T04:59:58.552Z,133.75
2022-08-05T05:02:37.196Z,140.02
2022-08-05T05:05:16.780Z,124.32
2022-08-05T05:08:01.169Z,124.93
2022-08-05T05:10:33.416Z,138.43
2022-08-05T05:13:04.032Z,131.85
2022-08-05T05:15:57.365Z,129.60
2022-08-05T05:18:31.224Z,135.10
2022-08-05T05:21:02.059Z,130.27
2022-08-05T05:23:39.439Z,145.20
2022-08-05T05:26:17.441Z,126.53
2022-08-05T05:28:45.031Z,142.43
2022-08-05T05:31:12.828Z,141.15
2022-08-05T05:33:57.038Z,145.50
2022-08-05T05:36:28.546Z,133.88
2022-08-05T05:38:57.326Z,143.32
2022-08-05T05:41:24.775Z,133.63
2022-08-05T05:43:58.272Z,144.38
2022-08-05T05:46:27.474Z,136.15
2022-08-05T05:48:54.554Z,138.57
2022-08-05T05:51:25.976Z,145.07
2022-08-05T05:53:58.962Z,141.57
2022-08-05T05:56:32.486Z,139.48
2022-08-05T05:59:05.309Z,133.90
2022-08-05T06:01:37.092Z,129.75
2022-08-05T06:04:12.046Z,129.00
2022-08-05T06:06:47.767Z,133.60
2022-08-05T06:09:24.693Z,138.23
2022-08-05T06:11:59.404Z,135.60
2022-08-05T06:14:29.014Z,144.75
2022-08-05T06:16:56.923Z,145.88
2022-08-05T06:19:34.176Z,136.23
2022-08-05T06:22:06.484Z,138.63
2022-08-05T06:24:42.216Z,141.52
2022-08-05T06:28:11.135Z,140.63
2022-08-05T06:30:16.821Z,130.18
2022-08-05T06:32:47.134Z,137.43
2022-08-05T06:35:15.541Z,146.27
2022-08-05T06:37:57.686Z,146.40
2022-08-05T06:40:27.683Z,138.20
2022-08-05T06:42:55.293Z,144.43
2022-08-05T06:45:44.798Z,146.90
2022-08-05T06:48:36.685Z,141.82
2022-08-05T06:50:57.648Z,145.77
2022-08-05T06:53:28.310Z,156.95
2022-08-05T06:56:00.342Z,160.77
2022-08-05T06:58:34.858Z,149.88
2022-08-05T07:01:06.159Z,159.30
2022-08-05T07:03:34.401Z,161.07
2022-08-05T07:06:06.153Z,169.88
2022-08-05T07:08:47.467Z,176.93
2022-08-05T07:11:22.122Z,155.18
2022-08-05T07:14:15.588Z,181.60
2022-08-05T07:17:59.875Z,155.35
2022-08-05T07:22:29.171Z,149.20
2022-08-05T07:25:23.450Z,153.85
2022-08-05T07:27:58.123Z,143.32
2022-08-05T07:30:38.922Z,138.00
2022-08-05T07:33:10.572Z,151.73
2022-08-05T07:36:04.593Z,134.23
2022-08-05T07:38:42.588Z,144.88
2022-08-05T07:42:13.453Z,144.77
2022-08-05T07:44:18.701Z,133.55
2022-08-05T07:49:18.758Z,130.45
2022-08-05T07:51:53.479Z,132.18
2022-08-05T07:54:30.630Z,126.57
2022-08-05T07:57:16.905Z,127.50
2022-08-05T07:59:48.790Z,120.13
2022-08-05T08:02:17.900Z,122.80
2022-08-05T08:04:48.420Z,110.50
2022-08-05T08:07:23.048Z,117.65
2022-08-05T08:09:52.521Z,14.82
2022-08-05T08:12:35.611Z,2.63
2022-08-05T08:15:09.665Z,10.15
2022-08-05T08:17:46.064Z,12.02
2022-08-05T08:20:44.542Z,8.27
2022-08-05T08:23:03.848Z,2.22
2022-08-05T08:25:59.206Z,3.75
2022-08-05T08:28:36.716Z,3.55
2022-08-05T08:31:07.746Z,2.67
2022-08-05T08:33:37.638Z,3.63
2022-08-05T08:38:55.560Z,2.72
2022-08-05T08:41:26.373Z,8.45
2022-08-05T08:45:23.884Z,9.43
2022-08-05T08:47:04.111Z,12.13
2022-08-05T08:50:05.937Z,6.80
2022-08-05T08:52:54.162Z,3.97
2022-08-05T08:55:32.121Z,3.97
2022-08-05T08:58:12.981Z,4.38
2022-08-05T09:00:42.499Z,4.32
2022-08-05T09:03:11.537Z,6.53
2022-08-05T09:06:07.516Z,16.42
2022-08-05T09:08:30.198Z,11.82
2022-08-05T09:10:58.494Z,9.10
2022-08-05T09:13:31.663Z,13.93
2022-08-05T09:16:14.640Z,12.88
2022-08-05T09:18:44.900Z,13.43
2022-08-05T09:22:17.532Z,26.85
2022-08-05T09:24:10.173Z,20.35
2022-08-05T09:26:37.498Z,20.38
2022-08-05T09:29:08.756Z,47.17
2022-08-05T09:32:39.896Z,44.05
2022-08-05T09:34:23.561Z,61.70
2022-08-05T09:36:54.366Z,45.20
2022-08-05T09:39:27.758Z,30.20
2022-08-05T09:42:11.320Z,13.93
2022-08-05T09:44:44.718Z,11.48
2022-08-05T09:47:23.675Z,9.63
2022-08-05T09:50:02.421Z,7.85
2022-08-05T09:52:33.661Z,5.97
2022-08-05T09:55:57.572Z,5.80
2022-08-05T09:57:59.874Z,5.85
2022-08-05T10:00:27.829Z,6.78
2022-08-05T10:02:59.009Z,7.93
2022-08-05T10:05:32.919Z,13.63
2022-08-05T10:08:35.703Z,12.95
2022-08-05T10:10:54.253Z,53.80
2022-08-05T10:13:45.754Z,43.28
2022-08-05T10:16:32.323Z,43.90
2022-08-05T10:19:09.399Z,32.10
2022-08-05T10:21:40.287Z,33.10
2022-08-05T10:24:15.131Z,45.10
2022-08-05T10:26:48.983Z,48.55
2022-08-05T10:29:24.205Z,26.92
2022-08-05T10:32:53.047Z,13.13
2022-08-05T10:35:01.131Z,13.75
2022-08-05T10:37:37.155Z,25.88
2022-08-05T10:40:45.076Z,39.20
2022-08-05T10:43:23.258Z,18.00
2022-08-05T10:46:06.080Z,10.20
2022-08-05T10:48:56.656Z,12.57
2022-08-05T10:51:59.914Z,13.25
2022-08-05T10:55:04.772Z,13.90
2022-08-05T10:57:33.814Z,13.70
2022-08-05T11:00:20.446Z,15.73
2022-08-05T11:03:23.683Z,20.83
2022-08-05T11:06:15.473Z,16.77
2022-08-05T11:09:32.124Z,24.95
2022-08-05T11:12:42.115Z,16.50
2022-08-05T11:15:21.309Z,19.08
2022-08-05T11:18:00.386Z,20.30
2022-08-05T11:20:41.651Z,25.23
2022-08-05T11:24:02.338Z,25.70
2022-08-05T11:26:31.967Z,24.00
2022-08-05T11:29:11.692Z,25.88
2022-08-05T11:31:58.871Z,76.93
2022-08-05T11:34:40.040Z,54.72
2022-08-05T11:38:28.778Z,24.00
2022-08-05T11:41:35.021Z,24.05
2022-08-05T11:44:04.623Z,30.63
2022-08-05T11:46:58.287Z,33.63
2022-08-05T11:49:37.768Z,48.15
2022-08-05T11:52:11.224Z,6.20
2022-08-05T11:54:41.407Z,6.25
2022-08-05T11:57:24.828Z,12.55
2022-08-05T11:59:53.837Z,17.20
2022-08-05T12:02:32.025Z,16.33
2022-08-05T12:05:07.662Z,33.15
2022-08-05T12:08:08.337Z,19.08
2022-08-05T12:10:43.567Z,16.40
2022-08-05T12:13:16.766Z,22.10
2022-08-05T12:15:50.233Z,16.17
2022-08-05T12:18:18.902Z,14.52
2022-08-05T12:20:47.753Z,27.73
2022-08-05T12:23:14.795Z,51.33
2022-08-05T12:25:56.930Z,68.35
2022-08-05T12:28:37.891Z,51.63
2022-08-05T12:31:05.814Z,153.05
2022-08-05T12:33:36.545Z,94.80
2022-08-05T12:36:08.600Z,163.40
2022-08-05T12:38:41.118Z,70.38
2022-08-05T12:41:13.450Z,45.53
2022-08-05T12:43:58.845Z,31.65
2022-08-05T12:46:29.211Z,85.68
2022-08-05T12:49:13.442Z,174.27
2022-08-05T12:52:12.081Z,366.40
2022-08-05T12:54:51.274Z,515.65
2022-08-05T12:57:19.661Z,395.27
2022-08-05T13:01:56.932Z,538.83
2022-08-05T13:02:42.513Z,557.67
2022-08-05T13:05:15.079Z,485.33
2022-08-05T13:08:00.058Z,645.42
2022-08-05T13:10:31.622Z,691.47
2022-08-05T13:12:58.866Z,708.53
2022-08-05T13:15:41.096Z,654.42
2022-08-05T13:18:10.890Z,549.58
2022-08-05T13:20:46.261Z,467.33
2022-08-05T13:23:13.544Z,180.40
2022-08-05T13:25:58.796Z,268.02
2022-08-05T13:28:29.085Z,527.28
2022-08-05T13:30:59.465Z,697.80
2022-08-05T13:34:21.797Z,700.25
2022-08-05T13:36:17.525Z,611.95
2022-08-05T13:38:44.568Z,470.73
2022-08-05T13:41:19.122Z,404.33
2022-08-05T13:43:54.797Z,296.75
2022-08-05T13:46:37.907Z,237.20
2022-08-05T13:49:11.870Z,172.02
2022-08-05T13:51:46.286Z,165.25
2022-08-05T13:54:15.950Z,245.75
2022-08-05T13:56:45.237Z,424.97
2022-08-05T13:59:27.466Z,626.83
2022-08-05T14:02:00.383Z,738.28
2022-08-05T14:04:55.466Z,808.25
2022-08-05T14:07:59.919Z,851.05
2022-08-05T14:10:27.996Z,823.58
2022-08-05T14:12:57.436Z,765.10
2022-08-05T14:16:08.684Z,768.50
2022-08-05T14:18:17.843Z,706.13
2022-08-05T14:20:48.026Z,737.17
2022-08-05T14:23:23.418Z,681.70
2022-08-05T14:25:58.230Z,638.58
2022-08-05T14:28:28.268Z,582.08
2022-08-05T14:30:56.653Z,549.22
2022-08-05T14:33:24.286Z,422.65
2022-08-05T14:35:53.986Z,379.23
2022-08-05T14:38:33.212Z,446.92
2022-08-05T14:41:07.736Z,382.55
2022-08-05T14:43:53.916Z,410.98
2022-08-05T14:46:29.150Z,368.63
2022-08-05T14:48:59.565Z,381.55
2022-08-05T14:51:31.224Z,380.40
2022-08-05T14:54:26.656Z,372.17
2022-08-05T14:56:48.688Z,339.52
2022-08-05T14:59:18.452Z,376.65
2022-08-05T15:01:49.781Z,366.95
2022-08-05T15:04:20.596Z,336.52
2022-08-05T15:06:50.490Z,287.33
2022-08-05T15:09:52.562Z,273.08
2022-08-05T15:12:16.350Z,257.90
2022-08-05T15:14:49.994Z,232.02
2022-08-05T15:17:45.738Z,225.43
2022-08-05T15:20:09.752Z,227.52
2022-08-05T15:22:44.735Z,236.07
2022-08-05T15:25:13.978Z,216.57
2022-08-05T15:27:42.875Z,212.85
2022-08-05T15:30:18.933Z,215.05
2022-08-05T15:32:47.212Z,208.95
2022-08-05T15:35:14.734Z,213.52
2022-08-05T15:38:32.667Z,199.85
2022-08-05T15:40:59.389Z,195.68
2022-08-05T15:43:20.644Z,181.90
2022-08-05T15:46:00.131Z,173.25
2022-08-05T15:48:29.952Z,176.25
2022-08-05T15:50:57.481Z,163.75
2022-08-05T15:53:26.443Z,150.30
2022-08-05T15:56:03.704Z,136.55
2022-08-05T15:58:36.864Z,97.72
2022-08-05T16:01:17.407Z,93.47
2022-08-05T16:03:50.544Z,109.45
2022-08-05T16:06:20.246Z,66.63
2022-08-05T16:08:50.847Z,60.22
2022-08-05T16:11:18.650Z,82.82
2022-08-05T16:13:48.554Z,72.63
2022-08-05T16:16:21.304Z,82.50
2022-08-05T16:18:53.105Z,119.55
2022-08-05T16:22:00.618Z,86.35
2022-08-05T16:24:12.861Z,114.65
2022-08-05T16:26:56.587Z,109.07
2022-08-05T16:29:24.878Z,130.15
2022-08-05T16:31:56.715Z,126.38
2022-08-05T16:34:26.463Z,121.25
2022-08-05T16:36:54.314Z,109.90
2022-08-05T16:39:22.031Z,111.70
2022-08-05T16:42:14.140Z,89.68
2022-08-05T16:44:44.239Z,92.15
2022-08-05T16:47:28.992Z,78.22
2022-08-05T16:49:58.964Z,85.65
2022-08-05T16:52:32.673Z,85.70
2022-08-05T16:55:00.946Z,91.47
2022-08-05T16:57:42.969Z,82.20
2022-08-05T17:00:26.251Z,72.90
2022-08-05T17:03:09.334Z,72.03
2022-08-05T17:05:53.362Z,65.60
2022-08-05T17:08:36.001Z,61.33
2022-08-05T17:11:12.679Z,64.43
2022-08-05T17:13:45.572Z,64.70
2022-08-05T17:16:32.822Z,43.72
2022-08-05T17:19:00.680Z,31.42
2022-08-05T17:21:36.322Z,30.50
2022-08-05T17:24:18.702Z,40.83
2022-08-05T17:26:57.219Z,29.38
2022-08-05T17:29:33.547Z,25.30
2022-08-05T17:32:08.434Z,32.92
2022-08-05T17:34:38.980Z,27.00
2022-08-05T17:37:16.934Z,26.35
2022-08-05T17:39:55.830Z,26.08
2022-08-05T17:42:28.346Z,46.00
2022-08-05T17:44:56.962Z,28.33
2022-08-05T17:47:24.044Z,45.00
2022-08-05T17:50:04.281Z,60.55
2022-08-05T17:52:52.763Z,53.03
2022-08-05T17:55:22.710Z,48.55
2022-08-05T17:57:54.769Z,67.20
2022-08-05T18:00:22.178Z,57.55
2022-08-05T18:02:56.627Z,47.20
2022-08-05T18:05:28.137Z,71.30
2022-08-05T18:08:02.500Z,62.08
2022-08-05T18:10:32.294Z,85.25
2022-08-05T18:15:35.152Z,41.40
2022-08-05T18:18:11.170Z,55.00
2022-08-05T18:20:38.848Z,82.03
2022-08-05T18:23:11.907Z,93.65
2022-08-05T18:25:45.403Z,106.00
2022-08-05T18:28:16.088Z,85.50
2022-08-05T18:30:50.857Z,67.28
2022-08-05T18:33:22.564Z,79.00
2022-08-05T18:36:00.774Z,69.03
2022-08-05T18:38:35.934Z,95.20
2022-08-05T18:41:56.462Z,94.53
2022-08-05T18:43:52.833Z,86.13
2022-08-05T18:46:20.677Z,75.55
2022-08-05T18:48:52.248Z,86.53
2022-08-05T18:52:06.811Z,96.80
2022-08-05T18:54:27.612Z,97.15
2022-08-05T18:56:58.258Z,115.10
2022-08-05T18:59:43.523Z,87.00
2022-08-05T19:02:28.050Z,72.70
2022-08-05T19:05:02.656Z,107.88
2022-08-05T19:07:48.111Z,86.33
2022-08-05T19:10:26.661Z,81.28
2022-08-05T19:12:56.746Z,107.68
2022-08-05T19:15:57.626Z,94.35
2022-08-05T19:18:13.476Z,90.05
2022-08-05T19:20:48.987Z,113.55
2022-08-05T19:23:22.657Z,95.53
2022-08-05T19:26:03.225Z,111.63
2022-08-05T19:28:32.696Z,104.60
2022-08-05T19:31:00.899Z,112.72
2022-08-05T19:33:36.456Z,98.55
2022-08-05T19:36:07.251Z,91.30
2022-08-05T19:38:36.802Z,119.97
2022-08-05T19:41:08.981Z,128.57
2022-08-05T19:44:06.284Z,143.68
2022-08-05T19:46:30.948Z,99.47
2022-08-05T19:49:03.524Z,86.50
2022-08-05T19:52:08.294Z,122.78
2022-08-05T19:54:31.557Z,145.93
2022-08-05T19:57:09.660Z,108.32
2022-08-05T19:59:56.225Z,125.97
2022-08-05T20:02:27.710Z,109.43
2022-08-05T20:04:58.726Z,134.52
2022-08-05T20:07:46.689Z,149.68
2022-08-05T20:10:16.113Z,126.78
2022-08-05T20:12:46.270Z,111.25
2022-08-05T20:15:23.268Z,117.05
2022-08-05T20:18:10.368Z,105.82
2022-08-05T20:20:56.799Z,101.47
2022-08-05T20:23:39.652Z,114.28
2022-08-05T20:26:16.536Z,125.47
2022-08-05T20:28:50.823Z,121.60
2022-08-05T20:31:21.628Z,102.13
2022-08-05T20:33:55.780Z,128.68
2022-08-05T20:36:24.241Z,116.22
2022-08-05T20:38:53.703Z,116.80
2022-08-05T20:41:27.309Z,113.22
2022-08-05T20:44:17.577Z,119.35
2022-08-05T20:46:48.161Z,114.13
2022-08-05T20:49:18.404Z,117.40
2022-08-05T20:51:53.493Z,131.48
2022-08-05T20:54:21.098Z,119.73
2022-08-05T20:56:48.866Z,120.95
2022-08-05T20:59:26.218Z,120.90
2022-08-05T21:01:57.204Z,124.93
2022-08-05T21:04:27.092Z,118.70
2022-08-05T21:06:54.981Z,117.68
2022-08-05T21:09:23.132Z,113.43
2022-08-05T21:12:10.655Z,114.55
2022-08-05T21:14:38.672Z,124.07
2022-08-05T21:17:06.343Z,111.88
2022-08-05T21:19:46.466Z,139.88
2022-08-05T21:22:18.355Z,111.90
2022-08-05T21:24:48.976Z,123.43
2022-08-05T21:27:25.327Z,107.57
2022-08-05T21:29:58.227Z,118.57
2022-08-05T21:32:29.184Z,107.97
2022-08-05T21:35:08.958Z,100.65
2022-08-05T21:37:53.129Z,121.38
2022-08-05T21:40:24.571Z,104.03
2022-08-05T21:42:52.989Z,111.85
2022-08-05T21:45:24.952Z,117.47
2022-08-05T21:48:11.043Z,108.63
2022-08-05T21:50:42.050Z,96.03
2022-08-05T21:53:20.296Z,102.07
2022-08-05T21:56:05.667Z,116.93
2022-08-05T21:58:34.482Z,100.13
2022-08-05T22:01:05.740Z,120.18
2022-08-05T22:03:52.601Z,128.63
2022-08-05T22:06:23.075Z,117.28
2022-08-05T22:09:02.119Z,107.65
2022-08-05T22:11:41.526Z,101.07
2022-08-05T22:14:33.201Z,123.88
2022-08-05T22:17:03.894Z,118.90
2022-08-05T22:20:01.265Z,110.35
2022-08-05T22:25:27.816Z,59.70
2022-08-05T22:28:11.754Z,73.18
2022-08-05T22:30:55.770Z,82.00
2022-08-05T22:33:57.134Z,77.22
2022-08-05T22:36:14.569Z,93.38
2022-08-05T22:38:43.854Z,78.38
2022-08-05T22:41:16.141Z,91.28
2022-08-05T22:44:03.602Z,82.32
2022-08-05T22:46:31.419Z,81.35
2022-08-05T22:48:59.761Z,104.95
2022-08-05T22:52:06.607Z,94.75
2022-08-05T22:54:14.401Z,81.72
2022-08-05T22:56:41.498Z,91.38
2022-08-05T22:59:43.693Z,108.03
2022-08-05T23:02:05.625Z,95.38
2022-08-05T23:04:35.193Z,91.97
2022-08-05T23:07:03.133Z,94.75
2022-08-05T23:09:57.307Z,92.68
2022-08-05T23:12:20.234Z,90.63
2022-08-05T23:14:51.223Z,106.68
2022-08-05T23:17:24.239Z,96.13
2022-08-05T23:20:02.420Z,90.72
2022-08-05T23:22:30.736Z,92.80
2022-08-05T23:24:58.251Z,84.47
2022-08-05T23:27:28.935Z,94.10
2022-08-05T23:30:10.858Z,87.78
2022-08-05T23:32:38.093Z,97.68
2022-08-05T23:35:12.753Z,83.00
2022-08-05T23:37:39.870Z,85.30
2022-08-05T23:40:09.591Z,87.40
2022-08-05T23:42:38.943Z,96.85
2022-08-05T23:45:13.988Z,94.90
2022-08-05T23:47:48.400Z,105.45
2022-08-05T23:50:20.256Z,92.07
2022-08-05T23:52:50.135Z,94.78
2022-08-05T23:55:19.189Z,99.18
2022-08-05T23:57:51.071Z,93.80
